createdAt,value
2018-08-10T00:00:06.794Z,98310.22
2018-08-10T00:02:35.199Z,98307.35
2018-08-10T00:05:03.555Z,98314.70
2018-08-10T00:07:31.791Z,98325.20
2018-08-10T00:10:00.094Z,98337.50
2018-08-10T00:12:28.450Z,98328.77
2018-08-10T00:14:56.676Z,98333.54
2018-08-10T00:17:24.958Z,98337.41
2018-08-10T00:19:53.170Z,98345.05
2018-08-10T00:22:21.472Z,98345.44
2018-08-10T00:24:49.634Z,98353.38
2018-08-10T00:27:17.867Z,98350.67
2018-08-10T00:29:46.343Z,98361.73
2018-08-10T00:32:14.630Z,98359.08
2018-08-10T00:34:42.883Z,98353.53
2018-08-10T00:37:11.170Z,98352.70
2018-08-10T00:39:39.382Z,98352.35
2018-08-10T00:42:07.595Z,98367.95
2018-08-10T00:44:35.839Z,98374.37
2018-08-10T00:47:04.195Z,98391.58
2018-08-10T00:49:32.454Z,98393.18
2018-08-10T00:52:00.711Z,98394.38
2018-08-10T00:54:29.023Z,98392.98
2018-08-10T00:56:57.366Z,98388.11
2018-08-10T00:59:25.667Z,98397.80
2018-08-10T01:01:53.955Z,98397.70
2018-08-10T01:04:22.263Z,98404.42
2018-08-10T01:06:50.542Z,98408.34
2018-08-10T01:09:18.798Z,98418.86
2018-08-10T01:11:47.116Z,98413.27
2018-08-10T01:14:15.306Z,98412.45
2018-08-10T01:16:43.614Z,98419.00
2018-08-10T01:19:11.936Z,98430.05
2018-08-10T01:21:40.195Z,98432.26
2018-08-10T01:24:08.515Z,98431.50
2018-08-10T01:26:36.747Z,98434.23
2018-08-10T01:29:05.048Z,98442.03
2018-08-10T01:31:33.258Z,98451.38
2018-08-10T01:34:01.464Z,98460.20
2018-08-10T01:36:29.714Z,98457.24
2018-08-10T01:38:57.997Z,98458.28
2018-08-10T01:41:26.210Z,98458.64
2018-08-10T01:43:54.402Z,98473.64
2018-08-10T01:46:22.599Z,98472.69
2018-08-10T01:48:50.843Z,98476.66
2018-08-10T01:51:19.145Z,98476.28
2018-08-10T01:53:47.422Z,98482.17
2018-08-10T01:56:15.626Z,98482.59
2018-08-10T01:58:43.854Z,98482.27
2018-08-10T02:01:12.035Z,98489.25
2018-08-10T02:03:40.266Z,98494.80
2018-08-10T02:06:08.548Z,98505.02
2018-08-10T02:08:36.722Z,98501.73
2018-08-10T02:11:04.947Z,98515.28
2018-08-10T02:13:33.126Z,98513.67
2018-08-10T02:16:01.338Z,98515.95
2018-08-10T02:18:29.546Z,98514.84
2018-08-10T02:20:57.768Z,98518.84
2018-08-10T02:23:25.986Z,98518.84
2018-08-10T02:25:54.181Z,98515.59
2018-08-10T02:28:22.430Z,98527.82
2018-08-10T02:30:50.706Z,98525.13
2018-08-10T02:33:18.918Z,98525.24
2018-08-10T02:35:47.131Z,98532.22
2018-08-10T02:38:15.375Z,98527.30
2018-08-10T02:40:43.555Z,98518.78
2018-08-10T02:43:11.759Z,98521.14
2018-08-10T02:45:40.044Z,98519.09
2018-08-10T02:48:08.259Z,98518.05
2018-08-10T02:50:36.475Z,98525.58
2018-08-10T02:53:04.676Z,98534.22
2018-08-10T02:55:32.918Z,98534.54
2018-08-10T02:58:01.127Z,98541.89
2018-08-10T03:00:29.327Z,98539.01
2018-08-10T03:02:57.555Z,98546.59
2018-08-10T03:05:25.866Z,98551.38
2018-08-10T03:07:54.133Z,98550.65
2018-08-10T03:10:22.419Z,98549.61
2018-08-10T03:12:50.728Z,98556.20
2018-08-10T03:15:19.014Z,98556.20
2018-08-10T03:17:47.235Z,98551.78
2018-08-10T03:20:15.423Z,98559.08
2018-08-10T03:22:43.704Z,98554.27
2018-08-10T03:25:13.341Z,98549.35
2018-08-10T03:27:41.597Z,98552.25
2018-08-10T03:30:11.203Z,98558.44
2018-08-10T03:32:39.754Z,98564.36
2018-08-10T03:35:07.994Z,98567.46
2018-08-10T03:37:36.470Z,98567.61
2018-08-10T03:40:06.867Z,98564.42
2018-08-10T03:42:38.816Z,98565.82
2018-08-10T03:45:07.550Z,98572.58
2018-08-10T03:47:35.771Z,98585.59
2018-08-10T03:50:04.822Z,98586.78
2018-08-10T03:52:33.026Z,98582.36
2018-08-10T03:55:01.216Z,98579.45
2018-08-10T03:57:29.439Z,98594.23
2018-08-10T03:59:57.927Z,98612.08
2018-08-10T04:02:26.323Z,98610.48
2018-08-10T04:04:54.506Z,98608.98
2018-08-10T04:07:22.710Z,98609.35
2018-08-10T04:09:50.927Z,98603.32
2018-08-10T04:12:19.171Z,98612.50
2018-08-10T04:14:47.499Z,98614.00
2018-08-10T04:17:23.297Z,98616.33
2018-08-10T04:19:52.499Z,98611.11
2018-08-10T04:22:20.842Z,98624.69
2018-08-10T04:24:49.163Z,98626.80
2018-08-10T04:27:17.500Z,98632.62
2018-08-10T04:29:45.698Z,98642.59
2018-08-10T04:32:13.998Z,98635.98
2018-08-10T04:34:42.263Z,98633.77
2018-08-10T04:37:10.570Z,98644.45
2018-08-10T04:39:38.854Z,98645.14
2018-08-10T04:42:07.175Z,98651.31
2018-08-10T04:44:35.411Z,98658.04
2018-08-10T04:47:03.747Z,98658.75
2018-08-10T04:49:31.970Z,98667.47
2018-08-10T04:52:00.210Z,98678.25
2018-08-10T04:54:28.435Z,98682.80
2018-08-10T04:56:56.762Z,98685.23
2018-08-10T04:59:25.372Z,98684.65
2018-08-10T05:01:53.586Z,98686.03
2018-08-10T05:04:21.791Z,98686.97
2018-08-10T05:06:49.976Z,98685.10
2018-08-10T05:09:18.227Z,98696.82
2018-08-10T05:11:46.442Z,98709.72
2018-08-10T05:14:14.679Z,98718.45
2018-08-10T05:16:43.152Z,98723.19
2018-08-10T05:19:11.347Z,98730.39
2018-08-10T05:21:39.598Z,98736.20
2018-08-10T05:24:08.019Z,98739.81
2018-08-10T05:26:36.211Z,98738.89
2018-08-10T05:29:10.462Z,98744.58
2018-08-10T05:31:38.705Z,98739.93
2018-08-10T05:34:06.923Z,98751.08
2018-08-10T05:36:35.138Z,98745.04
2018-08-10T05:39:03.804Z,98744.00
2018-08-10T05:41:32.050Z,98761.31
2018-08-10T05:44:00.274Z,98766.05
2018-08-10T05:46:28.569Z,98769.91
2018-08-10T05:48:56.689Z,98776.40
2018-08-10T05:51:24.904Z,98769.47
2018-08-10T05:53:53.087Z,98774.34
2018-08-10T05:56:21.369Z,98777.92
2018-08-10T05:58:49.575Z,98774.52
2018-08-10T06:01:17.794Z,98769.89
2018-08-10T06:03:46.025Z,98772.00
2018-08-10T06:06:14.214Z,98781.05
2018-08-10T06:08:42.411Z,98783.06
2018-08-10T06:11:10.833Z,98791.52
2018-08-10T06:13:39.064Z,98788.97
2018-08-10T06:16:07.266Z,98790.37
2018-08-10T06:18:35.511Z,98786.20
2018-08-10T06:21:03.714Z,98783.14
2018-08-10T06:23:31.922Z,98787.36
2018-08-10T06:26:00.132Z,98793.05
2018-08-10T06:28:28.306Z,98787.42
2018-08-10T06:30:56.714Z,98787.36
2018-08-10T06:33:24.890Z,98798.44
2018-08-10T06:35:53.170Z,98799.08
2018-08-10T06:38:21.395Z,98800.42
2018-08-10T06:40:49.770Z,98807.48
2018-08-10T06:43:17.953Z,98800.38
2018-08-10T06:45:46.208Z,98800.97
2018-08-10T06:48:14.422Z,98809.19
2018-08-10T06:50:42.658Z,98808.25
2018-08-10T06:53:10.908Z,98811.05
2018-08-10T06:55:39.122Z,98810.12
2018-08-10T06:58:07.327Z,98809.86
2018-08-10T07:00:35.716Z,98807.27
2018-08-10T07:03:03.841Z,98809.19
2018-08-10T07:05:32.039Z,98799.98
2018-08-10T07:08:00.267Z,98808.62
2018-08-10T07:10:28.467Z,98811.66
2018-08-10T07:12:56.781Z,98802.20
2018-08-10T07:15:24.926Z,98798.69
2018-08-10T07:17:53.203Z,98799.34
2018-08-10T07:20:21.409Z,98810.92
2018-08-10T07:22:49.687Z,98805.34
2018-08-10T07:25:17.863Z,98806.94
2018-08-10T07:27:46.080Z,98803.83
2018-08-10T07:30:14.278Z,98802.16
2018-08-10T07:32:42.554Z,98803.90
2018-08-10T07:35:10.914Z,98803.83
2018-08-10T07:37:39.110Z,98796.19
2018-08-10T07:40:07.463Z,98790.20
2018-08-10T07:42:35.664Z,98803.53
2018-08-10T07:45:03.954Z,98793.33
2018-08-10T07:47:32.176Z,98795.56
2018-08-10T07:50:00.401Z,98798.16
2018-08-10T07:52:35.306Z,98793.62
2018-08-10T07:55:03.595Z,98797.53
2018-08-10T07:57:31.793Z,98806.36
2018-08-10T08:00:00.088Z,98809.22
2018-08-10T08:02:28.414Z,98796.47
2018-08-10T08:04:56.678Z,98801.98
2018-08-10T08:07:24.886Z,98796.02
2018-08-10T08:09:53.110Z,98792.19
2018-08-10T08:12:21.463Z,98786.52
2018-08-10T08:14:49.704Z,98788.45
2018-08-10T08:17:17.947Z,98789.82
2018-08-10T08:19:46.468Z,98784.00
2018-08-10T08:22:17.926Z,98787.34
2018-08-10T08:24:46.163Z,98786.18
2018-08-10T08:27:15.602Z,98782.70
2018-08-10T08:29:43.827Z,98784.31
2018-08-10T08:32:12.330Z,98785.38
2018-08-10T08:34:40.884Z,98784.27
2018-08-10T08:37:09.440Z,98796.03
2018-08-10T08:40:43.011Z,98797.67
2018-08-10T08:43:11.386Z,98801.12
2018-08-10T08:46:12.934Z,98794.65
2018-08-10T08:48:43.528Z,98794.06
2018-08-10T08:51:13.666Z,98788.30
2018-08-10T08:53:42.003Z,98791.02
2018-08-10T08:56:12.639Z,98788.06
2018-08-10T08:58:41.410Z,98779.20
2018-08-10T09:01:10.000Z,98778.94
2018-08-10T09:05:09.519Z,98786.90
2018-08-10T09:07:38.160Z,98781.05
2018-08-10T09:10:13.337Z,98776.41
2018-08-10T09:12:41.612Z,98773.84
2018-08-10T09:15:13.076Z,98777.02
2018-08-10T09:17:41.481Z,98777.70
2018-08-10T09:20:10.162Z,98775.28
2018-08-10T09:22:38.488Z,98780.48
2018-08-10T09:25:10.890Z,98766.39
2018-08-10T09:27:39.143Z,98774.92
2018-08-10T09:30:10.928Z,98776.20
2018-08-10T09:32:39.363Z,98770.79
2018-08-10T09:35:08.726Z,98776.89
2018-08-10T09:37:36.967Z,98771.72
2018-08-10T09:40:08.589Z,98770.60
2018-08-10T09:42:37.063Z,98773.47
2018-08-10T09:45:06.399Z,98774.73
2018-08-10T09:47:34.662Z,98781.87
2018-08-10T09:50:02.971Z,98780.81
2018-08-10T09:52:31.194Z,98781.67
2018-08-10T09:55:18.192Z,98778.39
2018-08-10T09:57:46.450Z,98781.92
2018-08-10T10:00:20.123Z,98775.09
2018-08-10T10:02:53.246Z,98773.78
2018-08-10T10:05:22.327Z,98767.27
2018-08-10T10:07:50.555Z,98766.02
2018-08-10T10:10:18.908Z,98763.95
2018-08-10T10:12:47.243Z,98770.39
2018-08-10T10:15:15.553Z,98758.86
2018-08-10T10:17:43.763Z,98761.24
2018-08-10T10:20:11.957Z,98761.32
2018-08-10T10:25:30.919Z,98745.87
2018-08-10T10:27:59.159Z,98749.52
2018-08-10T10:30:27.472Z,98746.13
2018-08-10T10:32:55.771Z,98744.72
2018-08-10T10:35:24.043Z,98747.31
2018-08-10T10:37:52.296Z,98734.81
2018-08-10T10:40:20.530Z,98737.67
2018-08-10T10:42:48.999Z,98735.02
2018-08-10T10:45:17.353Z,98733.13
2018-08-10T10:47:46.786Z,98736.59
2018-08-10T10:50:15.382Z,98734.52
2018-08-10T10:52:43.835Z,98727.42
2018-08-10T10:55:12.418Z,98734.70
2018-08-10T10:57:41.631Z,98737.28
2018-08-10T11:00:18.221Z,98732.36
2018-08-10T11:02:46.986Z,98735.48
2018-08-10T11:05:15.262Z,98735.21
2018-08-10T11:07:43.511Z,98742.07
2018-08-10T11:10:13.042Z,98736.61
2018-08-10T11:12:41.343Z,98733.72
2018-08-10T11:15:10.659Z,98732.52
2018-08-10T11:17:38.903Z,98740.80
2018-08-10T11:20:08.771Z,98735.61
2018-08-10T11:22:37.447Z,98724.16
2018-08-10T11:25:06.783Z,98729.70
2018-08-10T11:27:35.024Z,98733.02
2018-08-10T11:30:03.394Z,98730.38
2018-08-10T11:32:31.603Z,98733.92
2018-08-10T11:34:59.799Z,98732.12
2018-08-10T11:37:27.993Z,98730.64
2018-08-10T11:39:56.204Z,98732.67
2018-08-10T11:42:24.421Z,98731.84
2018-08-10T11:44:52.798Z,98733.78
2018-08-10T11:47:21.025Z,98727.35
2018-08-10T11:49:49.371Z,98734.36
2018-08-10T11:52:17.578Z,98726.44
2018-08-10T11:54:45.939Z,98727.95
2018-08-10T11:57:14.199Z,98722.06
2018-08-10T11:59:42.578Z,98721.42
2018-08-10T12:02:10.928Z,98715.30
2018-08-10T12:04:39.279Z,98711.89
2018-08-10T12:07:07.552Z,98722.98
2018-08-10T12:09:35.831Z,98715.78
2018-08-10T12:12:04.171Z,98713.20
2018-08-10T12:14:32.376Z,98723.42
2018-08-10T12:17:00.678Z,98717.28
2018-08-10T12:19:28.991Z,98712.75
2018-08-10T12:21:57.267Z,98709.20
2018-08-10T12:24:25.561Z,98704.69
2018-08-10T12:26:54.052Z,98689.41
2018-08-10T12:29:22.359Z,98696.13
2018-08-10T12:31:50.602Z,98696.95
2018-08-10T12:34:18.835Z,98704.69
2018-08-10T12:36:47.055Z,98699.88
2018-08-10T12:39:15.294Z,98702.10
2018-08-10T12:41:43.573Z,98698.83
2018-08-10T12:44:12.834Z,98699.98
2018-08-10T12:46:41.196Z,98695.23
2018-08-10T12:49:09.522Z,98697.92
2018-08-10T12:51:37.922Z,98691.19
2018-08-10T12:54:06.162Z,98692.20
2018-08-10T12:56:34.443Z,98680.82
2018-08-10T12:59:02.751Z,98684.37
2018-08-10T13:01:31.011Z,98684.43
2018-08-10T13:03:59.328Z,98684.91
2018-08-10T13:06:27.759Z,98684.27
2018-08-10T13:08:55.990Z,98675.29
2018-08-10T13:11:25.907Z,98678.60
2018-08-10T13:13:54.223Z,98676.94
2018-08-10T13:16:22.467Z,98665.65
2018-08-10T13:18:51.044Z,98679.82
2018-08-10T13:21:19.539Z,98681.10
2018-08-10T13:23:47.833Z,98680.76
2018-08-10T13:26:16.095Z,98665.73
2018-08-10T13:28:44.343Z,98663.14
2018-08-10T13:31:12.635Z,98664.26
2018-08-10T13:33:41.003Z,98659.58
2018-08-10T13:36:09.252Z,98663.36
2018-08-10T13:38:37.511Z,98667.37
2018-08-10T13:41:05.807Z,98658.08
2018-08-10T13:44:04.826Z,98657.29
2018-08-10T13:46:33.167Z,98660.84
2018-08-10T13:49:01.715Z,98657.00
2018-08-10T13:51:30.137Z,98655.67
2018-08-10T13:53:58.411Z,98658.08
2018-08-10T13:56:27.056Z,98663.66
2018-08-10T13:58:55.342Z,98651.98
2018-08-10T14:01:23.823Z,98653.88
2018-08-10T14:03:52.195Z,98653.31
2018-08-10T14:06:20.576Z,98653.20
2018-08-10T14:08:48.984Z,98646.08
2018-08-10T14:11:17.394Z,98655.58
2018-08-10T14:13:45.834Z,98641.29
2018-08-10T14:16:14.208Z,98632.45
2018-08-10T14:18:42.579Z,98632.45
2018-08-10T14:21:10.965Z,98623.24
2018-08-10T14:23:39.264Z,98633.69
2018-08-10T14:26:07.622Z,98628.50
2018-08-10T14:28:36.123Z,98628.05
2018-08-10T14:31:04.484Z,98629.85
2018-08-10T14:33:32.985Z,98628.59
2018-08-10T14:36:01.283Z,98629.44
2018-08-10T14:38:29.572Z,98629.85
2018-08-10T14:40:57.841Z,98629.59
2018-08-10T14:43:27.087Z,98612.77
2018-08-10T14:45:55.487Z,98624.16
2018-08-10T14:48:23.922Z,98619.84
2018-08-10T14:50:52.414Z,98616.48
2018-08-10T14:53:20.731Z,98611.84
2018-08-10T14:55:49.152Z,98611.36
2018-08-10T14:58:17.447Z,98608.63
2018-08-10T15:00:45.893Z,98609.61
2018-08-10T15:03:14.147Z,98603.06
2018-08-10T15:05:42.519Z,98609.41
2018-08-10T15:08:10.870Z,98608.86
2018-08-10T15:10:39.196Z,98591.36
2018-08-10T15:13:07.641Z,98580.65
2018-08-10T15:15:35.878Z,98589.73
2018-08-10T15:18:04.348Z,98593.74
2018-08-10T15:20:32.831Z,98600.55
2018-08-10T15:23:01.190Z,98585.13
2018-08-10T15:25:29.569Z,98585.73
2018-08-10T15:27:57.862Z,98573.03
2018-08-10T15:30:26.252Z,98586.78
2018-08-10T15:32:54.543Z,98578.63
2018-08-10T15:35:22.850Z,98582.94
2018-08-10T15:37:51.187Z,98581.77
2018-08-10T15:40:21.014Z,98586.53
2018-08-10T15:42:49.329Z,98572.75
2018-08-10T15:45:18.282Z,98565.63
2018-08-10T15:47:46.766Z,98575.36
2018-08-10T15:50:15.111Z,98573.50
2018-08-10T15:52:44.679Z,98572.05
2018-08-10T15:55:14.577Z,98576.12
2018-08-10T15:57:42.927Z,98565.83
2018-08-10T16:00:19.186Z,98571.55
2018-08-10T16:02:47.936Z,98567.50
2018-08-10T16:05:16.218Z,98560.92
2018-08-10T16:07:44.979Z,98562.79
2018-08-10T16:10:13.424Z,98563.33
2018-08-10T16:12:41.703Z,98563.02
2018-08-10T16:15:12.315Z,98563.59
2018-08-10T16:17:40.706Z,98565.03
2018-08-10T16:20:11.100Z,98568.05
2018-08-10T16:22:39.740Z,98559.08
2018-08-10T16:25:09.752Z,98567.80
2018-08-10T16:27:38.011Z,98562.42
2018-08-10T16:30:07.978Z,98565.47
2018-08-10T16:32:36.194Z,98556.41
2018-08-10T16:35:04.929Z,98554.33
2018-08-10T16:37:33.224Z,98549.34
2018-08-10T16:40:01.574Z,98544.91
2018-08-10T16:42:29.883Z,98544.27
2018-08-10T16:44:58.255Z,98549.92
2018-08-10T16:47:26.475Z,98543.27
2018-08-10T16:49:54.714Z,98542.88
2018-08-10T16:52:23.020Z,98543.89
2018-08-10T16:55:33.499Z,98545.87
2018-08-10T16:58:01.814Z,98538.64
2018-08-10T17:00:30.063Z,98532.96
2018-08-10T17:02:58.376Z,98538.59
2018-08-10T17:05:26.671Z,98540.99
2018-08-10T17:07:54.891Z,98539.59
2018-08-10T17:10:23.215Z,98547.77
2018-08-10T17:13:54.518Z,98545.41
2018-08-10T17:16:22.831Z,98542.48
2018-08-10T17:18:51.088Z,98541.27
2018-08-10T17:21:19.366Z,98545.28
2018-08-10T17:23:47.603Z,98541.55
2018-08-10T17:26:15.890Z,98532.09
2018-08-10T17:28:44.155Z,98538.06
2018-08-10T17:31:12.417Z,98535.37
2018-08-10T17:33:41.591Z,98535.22
2018-08-10T17:36:09.830Z,98530.66
2018-08-10T17:38:38.052Z,98535.38
2018-08-10T17:41:06.359Z,98540.16
2018-08-10T17:43:34.671Z,98542.94
2018-08-10T17:46:03.002Z,98536.88
2018-08-10T17:48:31.275Z,98538.28
2018-08-10T17:50:59.554Z,98539.40
2018-08-10T17:53:27.863Z,98540.14
2018-08-10T17:55:56.130Z,98537.84
2018-08-10T17:58:24.424Z,98534.77
2018-08-10T18:00:52.668Z,98536.02
2018-08-10T18:03:20.974Z,98536.32
2018-08-10T18:05:49.271Z,98537.51
2018-08-10T18:08:17.636Z,98543.02
2018-08-10T18:10:45.858Z,98545.82
2018-08-10T18:13:15.647Z,98550.02
2018-08-10T18:15:43.915Z,98545.37
2018-08-10T18:18:12.146Z,98547.20
2018-08-10T18:20:40.463Z,98546.49
2018-08-10T18:23:08.767Z,98544.98
2018-08-10T18:25:37.018Z,98550.39
2018-08-10T18:28:05.387Z,98556.99
2018-08-10T18:30:33.586Z,98552.05
2018-08-10T18:33:01.927Z,98553.42
2018-08-10T18:35:30.195Z,98557.97
2018-08-10T18:37:58.483Z,98554.93
2018-08-10T18:40:26.799Z,98561.02
2018-08-10T18:42:55.107Z,98558.20
2018-08-10T18:45:23.347Z,98566.80
2018-08-10T18:47:51.651Z,98564.94
2018-08-10T18:50:20.543Z,98567.08
2018-08-10T18:52:48.980Z,98570.39
2018-08-10T18:55:21.743Z,98572.66
2018-08-10T18:57:50.410Z,98569.02
2018-08-10T19:00:21.216Z,98572.05
2018-08-10T19:02:49.517Z,98572.12
2018-08-10T19:05:18.310Z,98575.27
2018-08-10T19:07:47.318Z,98570.78
2018-08-10T19:10:17.866Z,98577.41
2018-08-10T19:12:46.126Z,98576.63
2018-08-10T19:15:14.435Z,98584.42
2018-08-10T19:17:42.786Z,98582.23
2018-08-10T19:20:11.871Z,98577.49
2018-08-10T19:22:40.127Z,98585.63
2018-08-10T19:25:09.914Z,98588.63
2018-08-10T19:27:38.130Z,98593.02
2018-08-10T19:30:09.693Z,98585.14
2018-08-10T19:32:37.983Z,98592.20
2018-08-10T19:35:06.403Z,98585.45
2018-08-10T19:37:34.777Z,98584.96
2018-08-10T19:40:03.028Z,98588.88
2018-08-10T19:42:31.287Z,98594.44
2018-08-10T19:44:59.531Z,98597.09
2018-08-10T19:47:27.796Z,98591.05
2018-08-10T19:49:56.099Z,98588.30
2018-08-10T19:52:24.332Z,98591.63
2018-08-10T19:54:52.575Z,98583.55
2018-08-10T19:57:20.831Z,98585.69
2018-08-10T19:59:49.153Z,98586.01
2018-08-10T20:02:17.451Z,98581.25
2018-08-10T20:04:45.696Z,98581.69
2018-08-10T20:07:14.020Z,98577.34
2018-08-10T20:09:42.250Z,98578.92
2018-08-10T20:12:10.586Z,98582.42
2018-08-10T20:14:38.814Z,98569.78
2018-08-10T20:17:07.146Z,98571.22
2018-08-10T20:19:35.434Z,98571.19
2018-08-10T20:22:04.016Z,98572.39
2018-08-10T20:24:32.320Z,98567.39
2018-08-10T20:27:00.625Z,98568.00
2018-08-10T20:29:28.907Z,98571.04
2018-08-10T20:31:57.428Z,98572.37
2018-08-10T20:34:25.656Z,98571.92
2018-08-10T20:36:53.878Z,98576.06
2018-08-10T20:39:22.292Z,98578.63
2018-08-10T20:41:50.543Z,98572.52
2018-08-10T20:44:18.807Z,98568.13
2018-08-10T20:46:47.021Z,98571.87
2018-08-10T20:49:15.339Z,98568.11
2018-08-10T20:51:43.627Z,98567.20
2018-08-10T20:54:11.871Z,98565.32
2018-08-10T20:56:40.213Z,98562.08
2018-08-10T20:59:08.438Z,98573.08
2018-08-10T21:01:36.735Z,98571.95
2018-08-10T21:04:05.512Z,98569.23
2018-08-10T21:06:35.373Z,98561.22
2018-08-10T21:09:04.795Z,98565.92
2018-08-10T21:11:33.153Z,98560.13
2018-08-10T21:14:01.395Z,98560.56
2018-08-10T21:16:29.594Z,98555.34
2018-08-10T21:18:57.831Z,98555.99
2018-08-10T21:21:26.038Z,98561.22
2018-08-10T21:23:54.346Z,98553.20
2018-08-10T21:26:22.619Z,98555.67
2018-08-10T21:28:50.902Z,98550.89
2018-08-10T21:31:19.186Z,98550.80
2018-08-10T21:33:47.470Z,98553.68
2018-08-10T21:36:15.751Z,98557.58
2018-08-10T21:38:44.078Z,98556.42
2018-08-10T21:41:12.355Z,98557.41
2018-08-10T21:43:40.702Z,98563.45
2018-08-10T21:46:08.939Z,98562.05
2018-08-10T21:48:37.233Z,98565.48
2018-08-10T21:51:05.410Z,98567.22
2018-08-10T21:53:33.626Z,98560.67
2018-08-10T21:56:01.820Z,98558.84
2018-08-10T21:58:30.087Z,98562.66
2018-08-10T22:00:59.027Z,98565.56
2018-08-10T22:03:27.278Z,98564.95
2018-08-10T22:05:55.560Z,98564.53
2018-08-10T22:08:24.426Z,98567.13
2018-08-10T22:10:52.767Z,98570.23
2018-08-10T22:13:26.403Z,98565.48
2018-08-10T22:16:00.095Z,98572.48
2018-08-10T22:18:39.383Z,98570.71
2018-08-10T22:21:07.619Z,98568.05
2018-08-10T22:23:35.907Z,98576.41
2018-08-10T22:26:04.117Z,98575.08
2018-08-10T22:28:32.310Z,98575.94
2018-08-10T22:31:00.591Z,98570.66
2018-08-10T22:33:28.850Z,98577.28
2018-08-10T22:35:57.136Z,98580.06
2018-08-10T22:38:25.431Z,98581.80
2018-08-10T22:40:53.690Z,98579.36
2018-08-10T22:43:22.019Z,98581.99
2018-08-10T22:45:50.286Z,98587.41
2018-08-10T22:48:18.678Z,98589.02
2018-08-10T22:50:46.883Z,98587.77
2018-08-10T22:53:15.150Z,98599.91
2018-08-10T22:55:43.362Z,98590.63
2018-08-10T22:58:11.615Z,98583.14
2018-08-10T23:00:40.894Z,98583.26
2018-08-10T23:03:09.194Z,98579.41
2018-08-10T23:05:37.415Z,98578.84
2018-08-10T23:08:05.908Z,98579.23
2018-08-10T23:10:34.214Z,98575.98
2018-08-10T23:13:02.503Z,98571.34
2018-08-10T23:15:30.852Z,98570.47
2018-08-10T23:17:59.067Z,98569.41
2018-08-10T23:20:27.407Z,98572.56
2018-08-10T23:22:55.651Z,98577.03
2018-08-10T23:25:23.926Z,98577.06
2018-08-10T23:27:52.223Z,98577.70
2018-08-10T23:30:20.456Z,98581.67
2018-08-10T23:32:48.682Z,98577.56
2018-08-10T23:35:16.994Z,98580.79
2018-08-10T23:37:45.264Z,98578.77
2018-08-10T23:40:14.751Z,98581.75
2018-08-10T23:42:43.431Z,98576.31
2018-08-10T23:45:12.781Z,98571.38
2018-08-10T23:47:41.794Z,98574.28
2018-08-10T23:50:12.813Z,98581.05
2018-08-10T23:52:41.438Z,98583.67
2018-08-10T23:55:10.335Z,98576.14
2018-08-10T23:57:39.807Z,98571.02
